sensor_id;sensor_type;location;lat;lon;timestamp;pressure;altitude;pressure_sealevel;temperature;humidity
18858;BME280;9558;50.178;8.370;2023-01-29T00:01:56;99452.00;;;-0.65;84.98
18858;BME280;9558;50.178;8.370;2023-01-29T00:04:23;99446.09;;;-0.65;85.36
18858;BME280;9558;50.178;8.370;2023-01-29T00:06:49;99450.22;;;-0.63;84.98
18858;BME280;9558;50.178;8.370;2023-01-29T00:09:17;99456.94;;;-0.62;84.95
18858;BME280;9558;50.178;8.370;2023-01-29T00:11:44;99458.59;;;-0.61;84.68
18858;BME280;9558;50.178;8.370;2023-01-29T00:14:10;99456.94;;;-0.62;85.00
18858;BME280;9558;50.178;8.370;2023-01-29T00:16:37;99457.84;;;-0.63;84.68
18858;BME280;9558;50.178;8.370;2023-01-29T00:19:05;99465.59;;;-0.66;85.16
18858;BME280;9558;50.178;8.370;2023-01-29T00:21:32;99469.03;;;-0.67;84.83
18858;BME280;9558;50.178;8.370;2023-01-29T00:23:59;99471.44;;;-0.64;85.09
18858;BME280;9558;50.178;8.370;2023-01-29T00:26:26;99473.13;;;-0.64;85.51
18858;BME280;9558;50.178;8.370;2023-01-29T00:28:53;99468.91;;;-0.64;85.54
18858;BME280;9558;50.178;8.370;2023-01-29T00:31:22;99470.41;;;-0.60;85.66
18858;BME280;9558;50.178;8.370;2023-01-29T00:33:49;99466.94;;;-0.59;85.85
18858;BME280;9558;50.178;8.370;2023-01-29T00:36:19;99462.47;;;-0.54;85.98
18858;BME280;9558;50.178;8.370;2023-01-29T00:38:46;99455.66;;;-0.53;86.12
18858;BME280;9558;50.178;8.370;2023-01-29T00:41:19;99464.88;;;-0.50;86.15
18858;BME280;9558;50.178;8.370;2023-01-29T00:44:05;99465.56;;;-0.47;86.34
18858;BME280;9558;50.178;8.370;2023-01-29T00:46:49;99461.28;;;-0.46;86.28
18858;BME280;9558;50.178;8.370;2023-01-29T00:49:16;99460.41;;;-0.45;86.17
18858;BME280;9558;50.178;8.370;2023-01-29T00:51:44;99455.91;;;-0.40;86.05
18858;BME280;9558;50.178;8.370;2023-01-29T00:54:32;99454.28;;;-0.41;85.93
18858;BME280;9558;50.178;8.370;2023-01-29T00:56:59;99455.91;;;-0.40;86.29
18858;BME280;9558;50.178;8.370;2023-01-29T00:59:26;99449.03;;;-0.38;86.19
18858;BME280;9558;50.178;8.370;2023-01-29T01:01:52;99448.16;;;-0.37;86.25
18858;BME280;9558;50.178;8.370;2023-01-29T01:04:36;99441.19;;;-0.33;86.21
18858;BME280;9558;50.178;8.370;2023-01-29T01:07:04;99445.44;;;-0.34;86.39
18858;BME280;9558;50.178;8.370;2023-01-29T01:09:34;99440.22;;;-0.31;86.33
18858;BME280;9558;50.178;8.370;2023-01-29T01:12:18;99442.75;;;-0.31;86.58
18858;BME280;9558;50.178;8.370;2023-01-29T01:14:44;99435.94;;;-0.30;86.52
18858;BME280;9558;50.178;8.370;2023-01-29T01:17:11;99435.88;;;-0.29;86.82
18858;BME280;9558;50.178;8.370;2023-01-29T01:19:38;99430.78;;;-0.29;86.53
18858;BME280;9558;50.178;8.370;2023-01-29T01:22:06;99423.16;;;-0.29;86.66
18858;BME280;9558;50.178;8.370;2023-01-29T01:24:32;99419.88;;;-0.31;86.43
18858;BME280;9558;50.178;8.370;2023-01-29T01:26:59;99415.00;;;-0.36;85.87
18858;BME280;9558;50.178;8.370;2023-01-29T01:29:26;99422.50;;;-0.32;84.89
18858;BME280;9558;50.178;8.370;2023-01-29T01:31:52;99414.25;;;-0.38;84.61
18858;BME280;9558;50.178;8.370;2023-01-29T01:34:19;99404.22;;;-0.41;84.79
18858;BME280;9558;50.178;8.370;2023-01-29T01:36:46;99402.88;;;-0.48;84.00
18858;BME280;9558;50.178;8.370;2023-01-29T01:39:14;99394.44;;;-0.48;84.90
18858;BME280;9558;50.178;8.370;2023-01-29T01:41:41;99404.53;;;-0.47;83.60
18858;BME280;9558;50.178;8.370;2023-01-29T01:47:07;99392.16;;;-0.55;82.89
18858;BME280;9558;50.178;8.370;2023-01-29T01:49:34;99384.84;;;-0.61;82.50
18858;BME280;9558;50.178;8.370;2023-01-29T01:52:00;99384.22;;;-0.66;82.53
18858;BME280;9558;50.178;8.370;2023-01-29T01:54:30;99382.88;;;-0.73;83.16
18858;BME280;9558;50.178;8.370;2023-01-29T01:57:01;99382.16;;;-0.75;83.84
18858;BME280;9558;50.178;8.370;2023-01-29T01:59:34;99383.19;;;-0.79;83.90
18858;BME280;9558;50.178;8.370;2023-01-29T02:02:02;99383.03;;;-0.76;84.62
18858;BME280;9558;50.178;8.370;2023-01-29T02:04:47;99384.69;;;-0.75;84.91
18858;BME280;9558;50.178;8.370;2023-01-29T02:07:32;99387.69;;;-0.67;84.78
18858;BME280;9558;50.178;8.370;2023-01-29T02:10:19;99387.81;;;-0.70;85.13
18858;BME280;9558;50.178;8.370;2023-01-29T02:12:46;99389.47;;;-0.69;85.16
18858;BME280;9558;50.178;8.370;2023-01-29T02:15:13;99382.72;;;-0.70;85.10
18858;BME280;9558;50.178;8.370;2023-01-29T02:17:39;99382.69;;;-0.68;85.77
18858;BME280;9558;50.178;8.370;2023-01-29T02:20:11;99392.78;;;-0.67;85.92
18858;BME280;9558;50.178;8.370;2023-01-29T02:22:59;99394.41;;;-0.66;86.36
18858;BME280;9558;50.178;8.370;2023-01-29T02:26:10;99401.16;;;-0.65;86.04
18858;BME280;9558;50.178;8.370;2023-01-29T02:28:46;99407.88;;;-0.64;86.41
18858;BME280;9558;50.178;8.370;2023-01-29T02:31:23;99409.53;;;-0.63;86.50
18858;BME280;9558;50.178;8.370;2023-01-29T02:34:02;99418.72;;;-0.60;87.09
18858;BME280;9558;50.178;8.370;2023-01-29T02:36:36;99422.84;;;-0.58;87.25
18858;BME280;9558;50.178;8.370;2023-01-29T02:39:13;99426.06;;;-0.54;87.28
18858;BME280;9558;50.178;8.370;2023-01-29T02:41:45;99434.50;;;-0.54;87.45
18858;BME280;9558;50.178;8.370;2023-01-29T02:44:19;99437.78;;;-0.52;87.09
18858;BME280;9558;50.178;8.370;2023-01-29T02:46:53;99431.88;;;-0.52;87.50
18858;BME280;9558;50.178;8.370;2023-01-29T02:49:27;99425.06;;;-0.52;87.36
18858;BME280;9558;50.178;8.370;2023-01-29T02:51:59;99423.38;;;-0.51;87.09
18858;BME280;9558;50.178;8.370;2023-01-29T02:54:30;99419.09;;;-0.50;87.08
18858;BME280;9558;50.178;8.370;2023-01-29T02:57:01;99414.00;;;-0.50;87.08
18858;BME280;9558;50.178;8.370;2023-01-29T02:59:34;99405.66;;;-0.53;87.15
18858;BME280;9558;50.178;8.370;2023-01-29T03:02:07;99400.56;;;-0.53;86.73
18858;BME280;9558;50.178;8.370;2023-01-29T03:04:40;99397.41;;;-0.58;86.60
18858;BME280;9558;50.178;8.370;2023-01-29T03:07:14;99395.75;;;-0.59;86.34
18858;BME280;9558;50.178;8.370;2023-01-29T03:10:05;99400.25;;;-0.64;85.99
18858;BME280;9558;50.178;8.370;2023-01-29T03:12:34;99400.47;;;-0.68;85.79
18858;BME280;9558;50.178;8.370;2023-01-29T03:15:08;99406.81;;;-0.77;85.67
18858;BME280;9558;50.178;8.370;2023-01-29T03:17:40;99408.75;;;-0.82;85.10
18858;BME280;9558;50.178;8.370;2023-01-29T03:20:11;99404.84;;;-0.90;85.06
18858;BME280;9558;50.178;8.370;2023-01-29T03:22:40;99410.97;;;-0.94;85.36
18858;BME280;9558;50.178;8.370;2023-01-29T03:25:10;99408.34;;;-0.92;85.76
18858;BME280;9558;50.178;8.370;2023-01-29T03:27:58;99402.00;;;-1.01;85.51
18858;BME280;9558;50.178;8.370;2023-01-29T03:30:47;99408.03;;;-1.03;85.71
18858;BME280;9558;50.178;8.370;2023-01-29T03:33:38;99413.03;;;-1.02;86.17
18858;BME280;9558;50.178;8.370;2023-01-29T03:36:09;99402.06;;;-1.02;86.63
18858;BME280;9558;50.178;8.370;2023-01-29T03:38:38;99404.66;;;-1.04;86.49
18858;BME280;9558;50.178;8.370;2023-01-29T03:41:08;99400.31;;;-1.02;86.96
18858;BME280;9558;50.178;8.370;2023-01-29T03:43:44;99393.47;;;-1.00;87.01
18858;BME280;9558;50.178;8.370;2023-01-29T03:46:18;99392.56;;;-0.99;86.76
18858;BME280;9558;50.178;8.370;2023-01-29T03:48:52;99401.09;;;-1.00;87.59
18858;BME280;9558;50.178;8.370;2023-01-29T03:51:25;99406.03;;;-0.97;87.49
18858;BME280;9558;50.178;8.370;2023-01-29T03:53:58;99416.06;;;-0.94;87.28
18858;BME280;9558;50.178;8.370;2023-01-29T03:56:35;99425.31;;;-0.93;87.74
18858;BME280;9558;50.178;8.370;2023-01-29T03:59:16;99424.41;;;-0.92;87.65
18858;BME280;9558;50.178;8.370;2023-01-29T04:01:51;99417.72;;;-0.93;87.18
18858;BME280;9558;50.178;8.370;2023-01-29T04:04:23;99421.94;;;-0.93;87.43
18858;BME280;9558;50.178;8.370;2023-01-29T04:06:54;99407.47;;;-0.91;88.12
18858;BME280;9558;50.178;8.370;2023-01-29T04:09:27;99409.09;;;-0.90;87.85
18858;BME280;9558;50.178;8.370;2023-01-29T04:11:59;99388.72;;;-0.89;87.99
18858;BME280;9558;50.178;8.370;2023-01-29T04:14:28;99396.28;;;-0.87;87.88
18858;BME280;9558;50.178;8.370;2023-01-29T04:17:00;99398.88;;;-0.89;87.75
18858;BME280;9558;50.178;8.370;2023-01-29T04:19:29;99398.03;;;-0.89;87.75
18858;BME280;9558;50.178;8.370;2023-01-29T04:22:02;99393.81;;;-0.89;87.31
18858;BME280;9558;50.178;8.370;2023-01-29T04:24:29;99404.09;;;-0.92;87.28
18858;BME280;9558;50.178;8.370;2023-01-29T04:27:04;99399.16;;;-0.95;87.92
18858;BME280;9558;50.178;8.370;2023-01-29T04:29:41;99400.66;;;-0.91;87.41
18858;BME280;9558;50.178;8.370;2023-01-29T04:32:15;99393.81;;;-0.89;87.90
18858;BME280;9558;50.178;8.370;2023-01-29T04:34:52;99399.78;;;-0.90;87.65
18858;BME280;9558;50.178;8.370;2023-01-29T04:37:29;99405.66;;;-0.89;87.80
18858;BME280;9558;50.178;8.370;2023-01-29T04:40:06;99406.63;;;-0.92;87.98
18858;BME280;9558;50.178;8.370;2023-01-29T04:42:41;99400.66;;;-0.91;87.85
18858;BME280;9558;50.178;8.370;2023-01-29T04:45:17;99401.53;;;-0.92;87.87
18858;BME280;9558;50.178;8.370;2023-01-29T04:47:51;99397.38;;;-0.93;87.78
18858;BME280;9558;50.178;8.370;2023-01-29T04:50:27;99399.16;;;-0.95;87.97
18858;BME280;9558;50.178;8.370;2023-01-29T04:52:59;99394.94;;;-0.96;87.99
18858;BME280;9558;50.178;8.370;2023-01-29T04:55:31;99394.06;;;-0.95;87.80
18858;BME280;9558;50.178;8.370;2023-01-29T04:58:05;99404.22;;;-0.95;87.96
18858;BME280;9558;50.178;8.370;2023-01-29T05:00:37;99400.09;;;-0.97;87.90
18858;BME280;9558;50.178;8.370;2023-01-29T05:03:06;99406.03;;;-0.97;87.71
18858;BME280;9558;50.178;8.370;2023-01-29T05:05:34;99411.13;;;-0.97;88.06
18858;BME280;9558;50.178;8.370;2023-01-29T05:08:02;99401.03;;;-0.98;87.97
18858;BME280;9558;50.178;8.370;2023-01-29T05:10:30;99398.50;;;-0.98;88.02
18858;BME280;9558;50.178;8.370;2023-01-29T05:12:59;99384.88;;;-0.97;87.82
18858;BME280;9558;50.178;8.370;2023-01-29T05:15:30;99375.69;;;-1.00;86.93
18858;BME280;9558;50.178;8.370;2023-01-29T05:17:58;99371.66;;;-1.04;87.72
18858;BME280;9558;50.178;8.370;2023-01-29T05:20:30;99365.78;;;-1.06;87.69
18858;BME280;9558;50.178;8.370;2023-01-29T05:22:57;99361.63;;;-1.07;87.81
18858;BME280;9558;50.178;8.370;2023-01-29T05:25:26;99367.59;;;-1.08;87.87
18858;BME280;9558;50.178;8.370;2023-01-29T05:27:53;99355.94;;;-1.12;87.85
18858;BME280;9558;50.178;8.370;2023-01-29T05:30:33;99366.97;;;-1.13;88.03
18858;BME280;9558;50.178;8.370;2023-01-29T05:33:00;99374.75;;;-1.16;88.17
18858;BME280;9558;50.178;8.370;2023-01-29T05:35:28;99369.81;;;-1.19;87.85
18858;BME280;9558;50.178;8.370;2023-01-29T05:37:55;99385.06;;;-1.19;88.04
18858;BME280;9558;50.178;8.370;2023-01-29T05:40:22;99380.94;;;-1.22;87.91
18858;BME280;9558;50.178;8.370;2023-01-29T05:42:49;99378.59;;;-1.27;88.20
18858;BME280;9558;50.178;8.370;2023-01-29T05:45:16;99373.53;;;-1.27;88.40
18858;BME280;9558;50.178;8.370;2023-01-29T05:47:43;99376.94;;;-1.28;88.76
18858;BME280;9558;50.178;8.370;2023-01-29T05:50:11;99382.03;;;-1.28;88.57
18858;BME280;9558;50.178;8.370;2023-01-29T05:52:39;99400.69;;;-1.29;88.67
18858;BME280;9558;50.178;8.370;2023-01-29T05:55:07;99405.78;;;-1.29;88.47
18858;BME280;9558;50.178;8.370;2023-01-29T05:57:34;99399.06;;;-1.30;88.79
18858;BME280;9558;50.178;8.370;2023-01-29T06:00:01;99395.75;;;-1.32;88.54
18858;BME280;9558;50.178;8.370;2023-01-29T06:02:29;99408.38;;;-1.30;88.48
18858;BME280;9558;50.178;8.370;2023-01-29T06:04:55;99409.38;;;-1.33;88.57
18858;BME280;9558;50.178;8.370;2023-01-29T06:07:22;99399.22;;;-1.33;88.63
18858;BME280;9558;50.178;8.370;2023-01-29T06:09:50;99390.75;;;-1.33;88.77
18858;BME280;9558;50.178;8.370;2023-01-29T06:12:16;99393.28;;;-1.33;88.92
18858;BME280;9558;50.178;8.370;2023-01-29T06:14:43;99375.44;;;-1.32;88.97
18858;BME280;9558;50.178;8.370;2023-01-29T06:17:09;99369.47;;;-1.31;89.38
18858;BME280;9558;50.178;8.370;2023-01-29T06:19:36;99375.44;;;-1.32;89.28
18858;BME280;9558;50.178;8.370;2023-01-29T06:22:02;99354.97;;;-1.29;89.15
18858;BME280;9558;50.178;8.370;2023-01-29T06:24:29;99358.56;;;-1.33;89.34
18858;BME280;9558;50.178;8.370;2023-01-29T06:26:58;99357.66;;;-1.32;89.15
18858;BME280;9558;50.178;8.370;2023-01-29T06:29:24;99366.78;;;-1.28;88.94
18858;BME280;9558;50.178;8.370;2023-01-29T06:31:51;99363.59;;;-1.31;89.27
18858;BME280;9558;50.178;8.370;2023-01-29T06:34:17;99365.91;;;-1.27;89.22
18858;BME280;9558;50.178;8.370;2023-01-29T06:36:44;99360.91;;;-1.28;89.47
18858;BME280;9558;50.178;8.370;2023-01-29T06:39:10;99366.78;;;-1.28;89.64
18858;BME280;9558;50.178;8.370;2023-01-29T06:41:37;99367.59;;;-1.27;89.63
18858;BME280;9558;50.178;8.370;2023-01-29T06:44:05;99360.06;;;-1.29;89.77
18858;BME280;9558;50.178;8.370;2023-01-29T06:46:31;99371.88;;;-1.28;89.72
18858;BME280;9558;50.178;8.370;2023-01-29T06:48:59;99368.44;;;-1.27;89.74
18858;BME280;9558;50.178;8.370;2023-01-29T06:51:25;99369.34;;;-1.28;89.40
18858;BME280;9558;50.178;8.370;2023-01-29T06:53:52;99373.59;;;-1.28;89.55
18858;BME280;9558;50.178;8.370;2023-01-29T06:56:20;99385.59;;;-1.32;88.99
18858;BME280;9558;50.178;8.370;2023-01-29T06:58:46;99379.78;;;-1.34;89.23
18858;BME280;9558;50.178;8.370;2023-01-29T07:01:14;99383.19;;;-1.35;89.39
18858;BME280;9558;50.178;8.370;2023-01-29T07:03:41;99374.91;;;-1.38;89.13
18858;BME280;9558;50.178;8.370;2023-01-29T07:06:09;99377.63;;;-1.43;88.92
18858;BME280;9558;50.178;8.370;2023-01-29T07:08:36;99388.78;;;-1.46;89.14
18858;BME280;9558;50.178;8.370;2023-01-29T07:11:03;99391.63;;;-1.53;89.14
18858;BME280;9558;50.178;8.370;2023-01-29T07:13:30;99401.94;;;-1.57;90.16
18858;BME280;9558;50.178;8.370;2023-01-29T07:15:57;99407.75;;;-1.54;89.19
18858;BME280;9558;50.178;8.370;2023-01-29T07:18:26;99408.84;;;-1.60;89.27
18858;BME280;9558;50.178;8.370;2023-01-29T07:20:53;99412.38;;;-1.63;89.26
18858;BME280;9558;50.178;8.370;2023-01-29T07:23:20;99406.59;;;-1.66;88.47
18858;BME280;9558;50.178;8.370;2023-01-29T07:25:47;99408.38;;;-1.68;88.76
18858;BME280;9558;50.178;8.370;2023-01-29T07:28:14;99402.59;;;-1.72;89.08
18858;BME280;9558;50.178;8.370;2023-01-29T07:30:42;99401.00;;;-1.75;89.87
18858;BME280;9558;50.178;8.370;2023-01-29T07:33:10;99390.94;;;-1.76;89.98
18858;BME280;9558;50.178;8.370;2023-01-29T07:35:39;99399.47;;;-1.77;90.32
18858;BME280;9558;50.178;8.370;2023-01-29T07:38:06;99392.88;;;-1.81;90.21
18858;BME280;9558;50.178;8.370;2023-01-29T07:40:34;99388.66;;;-1.82;90.02
18858;BME280;9558;50.178;8.370;2023-01-29T07:43:02;99386.13;;;-1.82;90.00
18858;BME280;9558;50.178;8.370;2023-01-29T07:45:29;99381.06;;;-1.82;90.06
18858;BME280;9558;50.178;8.370;2023-01-29T07:47:56;99375.97;;;-1.82;90.11
18858;BME280;9558;50.178;8.370;2023-01-29T07:50:25;99375.97;;;-1.82;90.20
18858;BME280;9558;50.178;8.370;2023-01-29T07:52:54;99370.91;;;-1.82;90.15
18858;BME280;9558;50.178;8.370;2023-01-29T07:55:20;99386.88;;;-1.80;89.91
18858;BME280;9558;50.178;8.370;2023-01-29T07:57:54;99390.41;;;-1.83;89.78
18858;BME280;9558;50.178;8.370;2023-01-29T08:00:20;99394.50;;;-1.80;90.35
18858;BME280;9558;50.178;8.370;2023-01-29T08:02:47;99385.19;;;-1.80;90.06
18858;BME280;9558;50.178;8.370;2023-01-29T08:05:14;99382.50;;;-1.77;90.56
18858;BME280;9558;50.178;8.370;2023-01-29T08:07:41;99385.59;;;-1.70;90.30
18858;BME280;9558;50.178;8.370;2023-01-29T08:10:10;99396.44;;;-1.66;90.61
18858;BME280;9558;50.178;8.370;2023-01-29T08:12:37;99412.22;;;-1.60;90.52
18858;BME280;9558;50.178;8.370;2023-01-29T08:15:04;99419.69;;;-1.57;90.72
18858;BME280;9558;50.178;8.370;2023-01-29T08:17:31;99417.03;;;-1.53;90.28
18858;BME280;9558;50.178;8.370;2023-01-29T08:19:57;99416.88;;;-1.50;90.46
18858;BME280;9558;50.178;8.370;2023-01-29T08:22:24;99407.38;;;-1.45;90.82
18858;BME280;9558;50.178;8.370;2023-01-29T08:24:51;99402.88;;;-1.40;90.92
18858;BME280;9558;50.178;8.370;2023-01-29T08:27:19;99402.63;;;-1.34;90.88
18858;BME280;9558;50.178;8.370;2023-01-29T08:29:45;99404.97;;;-1.29;90.42
18858;BME280;9558;50.178;8.370;2023-01-29T08:32:12;99396.25;;;-1.24;90.35
18858;BME280;9558;50.178;8.370;2023-01-29T08:34:39;99391.63;;;-1.15;90.45
18858;BME280;9558;50.178;8.370;2023-01-29T08:37:05;99396.44;;;-1.09;90.40
18858;BME280;9558;50.178;8.370;2023-01-29T08:39:32;99403.72;;;-1.01;90.19
18858;BME280;9558;50.178;8.370;2023-01-29T08:41:59;99413.44;;;-0.92;90.17
18858;BME280;9558;50.178;8.370;2023-01-29T08:44:27;99413.97;;;-0.85;89.81
18858;BME280;9558;50.178;8.370;2023-01-29T08:46:53;99415.41;;;-0.80;89.67
18858;BME280;9558;50.178;8.370;2023-01-29T08:49:20;99422.06;;;-0.77;88.84
18858;BME280;9558;50.178;8.370;2023-01-29T08:51:46;99418.31;;;-0.70;89.07
18858;BME280;9558;50.178;8.370;2023-01-29T08:54:13;99418.19;;;-0.67;89.03
18858;BME280;9558;50.178;8.370;2023-01-29T08:56:40;99418.19;;;-0.67;88.38
18858;BME280;9558;50.178;8.370;2023-01-29T08:59:06;99431.34;;;-0.59;89.33
18858;BME280;9558;50.178;8.370;2023-01-29T09:01:34;99426.16;;;-0.56;88.91
18858;BME280;9558;50.178;8.370;2023-01-29T09:04:01;99420.00;;;-0.52;88.90
18858;BME280;9558;50.178;8.370;2023-01-29T09:06:27;99417.31;;;-0.48;88.77
18858;BME280;9558;50.178;8.370;2023-01-29T09:08:54;99416.28;;;-0.44;88.17
18858;BME280;9558;50.178;8.370;2023-01-29T09:11:21;99418.66;;;-0.41;88.50
18858;BME280;9558;50.178;8.370;2023-01-29T09:13:47;99423.59;;;-0.38;88.27
18858;BME280;9558;50.178;8.370;2023-01-29T09:16:14;99433.69;;;-0.37;88.61
18858;BME280;9558;50.178;8.370;2023-01-29T09:18:42;99437.81;;;-0.34;88.31
18858;BME280;9558;50.178;8.370;2023-01-29T09:21:09;99433.56;;;-0.33;87.49
18858;BME280;9558;50.178;8.370;2023-01-29T09:23:36;99434.31;;;-0.31;87.43
18858;BME280;9558;50.178;8.370;2023-01-29T09:26:03;99442.84;;;-0.32;86.47
18858;BME280;9558;50.178;8.370;2023-01-29T09:28:29;99436.78;;;-0.30;87.32
18858;BME280;9558;50.178;8.370;2023-01-29T09:30:59;99438.41;;;-0.29;87.42
18858;BME280;9558;50.178;8.370;2023-01-29T09:33:26;99442.91;;;-0.34;85.54
18858;BME280;9558;50.178;8.370;2023-01-29T09:35:54;99444.63;;;-0.35;86.32
18858;BME280;9558;50.178;8.370;2023-01-29T09:38:21;99459.22;;;-0.38;84.73
18858;BME280;9558;50.178;8.370;2023-01-29T09:40:54;99454.44;;;-0.44;85.05
18858;BME280;9558;50.178;8.370;2023-01-29T09:43:30;99458.81;;;-0.48;86.03
18858;BME280;9558;50.178;8.370;2023-01-29T09:46:00;99453.66;;;-0.46;86.64
18858;BME280;9558;50.178;8.370;2023-01-29T09:48:32;99449.34;;;-0.44;86.48
18858;BME280;9558;50.178;8.370;2023-01-29T09:51:05;99447.22;;;-0.36;87.16
18858;BME280;9558;50.178;8.370;2023-01-29T09:53:40;99453.66;;;-0.29;86.36
18858;BME280;9558;50.178;8.370;2023-01-29T09:56:12;99448.44;;;-0.26;87.04
18858;BME280;9558;50.178;8.370;2023-01-29T09:58:41;99449.94;;;-0.22;86.97
18858;BME280;9558;50.178;8.370;2023-01-29T10:01:13;99449.66;;;-0.15;86.52
18858;BME280;9558;50.178;8.370;2023-01-29T10:03:59;99448.53;;;-0.10;86.58
18858;BME280;9558;50.178;8.370;2023-01-29T10:06:45;99449.03;;;-0.03;86.75
18858;BME280;9558;50.178;8.370;2023-01-29T10:09:46;99437.63;;;0.04;86.58
18858;BME280;9558;50.178;8.370;2023-01-29T10:12:35;99429.78;;;0.09;86.20
18858;BME280;9558;50.178;8.370;2023-01-29T10:15:27;99419.38;;;0.13;86.23
18858;BME280;9558;50.178;8.370;2023-01-29T10:18:11;99410.69;;;0.17;85.70
18858;BME280;9558;50.178;8.370;2023-01-29T10:20:52;99409.72;;;0.20;85.41
18858;BME280;9558;50.178;8.370;2023-01-29T10:23:24;99393.03;;;0.14;85.12
18858;BME280;9558;50.178;8.370;2023-01-29T10:25:53;99394.56;;;0.17;84.76
18858;BME280;9558;50.178;8.370;2023-01-29T10:28:24;99375.03;;;0.17;84.16
18858;BME280;9558;50.178;8.370;2023-01-29T10:30:58;99381.47;;;0.25;83.13
18858;BME280;9558;50.178;8.370;2023-01-29T10:33:29;99370.13;;;0.30;82.61
18858;BME280;9558;50.178;8.370;2023-01-29T10:36:01;99369.31;;;0.30;82.86
18858;BME280;9558;50.178;8.370;2023-01-29T10:38:39;99367.34;;;0.35;82.92
18858;BME280;9558;50.178;8.370;2023-01-29T10:41:24;99369.56;;;0.41;82.88
18858;BME280;9558;50.178;8.370;2023-01-29T10:44:04;99370.31;;;0.43;81.57
18858;BME280;9558;50.178;8.370;2023-01-29T10:46:49;99366.84;;;0.44;80.17
18858;BME280;9558;50.178;8.370;2023-01-29T10:49:28;99359.78;;;0.49;82.02
18858;BME280;9558;50.178;8.370;2023-01-29T10:52:08;99347.81;;;0.51;81.35
18858;BME280;9558;50.178;8.370;2023-01-29T10:54:48;99338.03;;;0.60;81.74
18858;BME280;9558;50.178;8.370;2023-01-29T10:57:29;99336.94;;;0.64;81.30
18858;BME280;9558;50.178;8.370;2023-01-29T11:00:06;99329.72;;;0.72;81.82
18858;BME280;9558;50.178;8.370;2023-01-29T11:02:42;99338.00;;;0.76;81.66
18858;BME280;9558;50.178;8.370;2023-01-29T11:05:18;99328.38;;;0.81;81.27
18858;BME280;9558;50.178;8.370;2023-01-29T11:07:45;99317.31;;;0.82;81.64
18858;BME280;9558;50.178;8.370;2023-01-29T11:10:17;99323.97;;;0.84;81.65
18858;BME280;9558;50.178;8.370;2023-01-29T11:12:46;99317.13;;;0.85;81.54
18858;BME280;9558;50.178;8.370;2023-01-29T11:15:18;99321.31;;;0.86;81.32
18858;BME280;9558;50.178;8.370;2023-01-29T11:18:03;99328.72;;;0.91;80.29
18858;BME280;9558;50.178;8.370;2023-01-29T11:20:31;99330.09;;;0.96;81.02
18858;BME280;9558;50.178;8.370;2023-01-29T11:22:58;99331.50;;;1.02;80.79
18858;BME280;9558;50.178;8.370;2023-01-29T11:25:27;99324.88;;;1.14;79.63
18858;BME280;9558;50.178;8.370;2023-01-29T11:28:00;99322.41;;;1.12;77.98
18858;BME280;9558;50.178;8.370;2023-01-29T11:30:34;99308.94;;;1.10;77.85
18858;BME280;9558;50.178;8.370;2023-01-29T11:33:09;99298.38;;;1.16;78.48
18858;BME280;9558;50.178;8.370;2023-01-29T11:35:37;99309.31;;;1.18;77.35
18858;BME280;9558;50.178;8.370;2023-01-29T11:38:17;99302.13;;;1.25;78.35
18858;BME280;9558;50.178;8.370;2023-01-29T11:40:45;99298.41;;;1.31;77.59
18858;BME280;9558;50.178;8.370;2023-01-29T11:43:18;99295.88;;;1.31;77.92
18858;BME280;9558;50.178;8.370;2023-01-29T11:45:46;99294.03;;;1.33;76.63
18858;BME280;9558;50.178;8.370;2023-01-29T11:48:15;99286.78;;;1.41;77.35
18858;BME280;9558;50.178;8.370;2023-01-29T11:50:43;99271.94;;;1.48;78.21
18858;BME280;9558;50.178;8.370;2023-01-29T11:53:33;99268.94;;;1.55;78.71
18858;BME280;9558;50.178;8.370;2023-01-29T11:56:05;99264.94;;;1.66;78.42
18858;BME280;9558;50.178;8.370;2023-01-29T11:58:34;99266.38;;;1.70;78.00
18858;BME280;9558;50.178;8.370;2023-01-29T12:01:01;99258.72;;;1.70;77.19
18858;BME280;9558;50.178;8.370;2023-01-29T12:03:34;99259.84;;;1.66;76.70
18858;BME280;9558;50.178;8.370;2023-01-29T12:06:04;99253.09;;;1.65;76.89
18858;BME280;9558;50.178;8.370;2023-01-29T12:08:35;99241.59;;;1.58;76.70
18858;BME280;9558;50.178;8.370;2023-01-29T12:11:09;99239.97;;;1.42;75.99
18858;BME280;9558;50.178;8.370;2023-01-29T12:13:37;99238.69;;;1.35;75.64
18858;BME280;9558;50.178;8.370;2023-01-29T12:16:16;99231.31;;;1.30;75.38
18858;BME280;9558;50.178;8.370;2023-01-29T12:18:48;99234.19;;;1.24;74.64
18858;BME280;9558;50.178;8.370;2023-01-29T12:21:20;99237.75;;;1.22;76.27
18858;BME280;9558;50.178;8.370;2023-01-29T12:23:53;99230.34;;;1.17;76.25
18858;BME280;9558;50.178;8.370;2023-01-29T12:26:27;99228.09;;;1.12;76.40
18858;BME280;9558;50.178;8.370;2023-01-29T12:29:06;99211.22;;;1.10;76.34
18858;BME280;9558;50.178;8.370;2023-01-29T12:31:44;99214.34;;;1.15;77.19
18858;BME280;9558;50.178;8.370;2023-01-29T12:34:19;99215.53;;;1.09;75.73
18858;BME280;9558;50.178;8.370;2023-01-29T12:36:52;99194.03;;;1.13;76.43
18858;BME280;9558;50.178;8.370;2023-01-29T12:39:20;99191.94;;;1.20;77.61
18858;BME280;9558;50.178;8.370;2023-01-29T12:41:52;99188.84;;;1.15;76.80
18858;BME280;9558;50.178;8.370;2023-01-29T12:44:27;99188.66;;;1.18;77.74
18858;BME280;9558;50.178;8.370;2023-01-29T12:46:59;99185.13;;;1.20;77.26
18858;BME280;9558;50.178;8.370;2023-01-29T12:49:28;99180.03;;;1.20;76.97
18858;BME280;9558;50.178;8.370;2023-01-29T12:51:59;99174.53;;;1.12;76.14
18858;BME280;9558;50.178;8.370;2023-01-29T12:54:34;99166.53;;;1.04;76.14
18858;BME280;9558;50.178;8.370;2023-01-29T12:57:08;99168.34;;;1.02;76.86
18858;BME280;9558;50.178;8.370;2023-01-29T12:59:39;99174.72;;;0.95;76.69
18858;BME280;9558;50.178;8.370;2023-01-29T13:02:17;99169.59;;;0.80;76.76
18858;BME280;9558;50.178;8.370;2023-01-29T13:04:48;99171.06;;;0.84;77.67
18858;BME280;9558;50.178;8.370;2023-01-29T13:07:23;99167.41;;;0.89;77.48
18858;BME280;9558;50.178;8.370;2023-01-29T13:09:56;99157.56;;;0.82;77.35
18858;BME280;9558;50.178;8.370;2023-01-29T13:12:27;99157.56;;;0.68;77.07
18858;BME280;9558;50.178;8.370;2023-01-29T13:14:57;99154.09;;;0.69;78.25
18858;BME280;9558;50.178;8.370;2023-01-29T13:17:29;99146.63;;;0.66;78.16
18858;BME280;9558;50.178;8.370;2023-01-29T13:20:02;99155.00;;;0.68;77.36
18858;BME280;9558;50.178;8.370;2023-01-29T13:22:32;99146.63;;;0.66;78.20
18858;BME280;9558;50.178;8.370;2023-01-29T13:25:02;99144.81;;;0.68;77.53
18858;BME280;9558;50.178;8.370;2023-01-29T13:27:31;99146.78;;;0.63;77.44
18858;BME280;9558;50.178;8.370;2023-01-29T13:29:59;99145.97;;;0.62;77.87
18858;BME280;9558;50.178;8.370;2023-01-29T13:32:27;99143.88;;;0.55;77.43
18858;BME280;9558;50.178;8.370;2023-01-29T13:34:56;99148.97;;;0.55;78.95
18858;BME280;9558;50.178;8.370;2023-01-29T13:37:29;99133.69;;;0.55;79.10
18858;BME280;9558;50.178;8.370;2023-01-29T13:39:58;99139.50;;;0.57;78.41